createdAt,value
2016-04-18T00:00:40.333Z,1012.36
2016-04-18T00:01:39.898Z,1012.37
2016-04-18T00:02:39.885Z,1012.39
2016-04-18T00:03:39.873Z,1012.4
2016-04-18T00:04:39.843Z,1012.39
2016-04-18T00:05:39.832Z,1012.41
2016-04-18T00:06:39.818Z,1012.43
2016-04-18T00:07:39.790Z,1012.4
2016-04-18T00:08:40.324Z,1012.4
2016-04-18T00:09:39.748Z,1012.45
2016-04-18T00:10:39.735Z,1012.39
2016-04-18T00:11:39.706Z,1012.37
2016-04-18T00:12:39.694Z,1012.41
2016-04-18T00:13:39.664Z,1012.41
2016-04-18T00:14:39.652Z,1012.38
2016-04-18T00:15:39.660Z,1012.38
2016-04-18T00:16:40.377Z,1012.35
2016-04-18T00:17:39.704Z,1012.37
2016-04-18T00:18:39.735Z,1012.42
2016-04-18T00:19:39.749Z,1012.4
2016-04-18T00:20:39.766Z,1012.41
2016-04-18T00:21:39.768Z,1012.42
2016-04-18T00:22:39.755Z,1012.44
2016-04-18T00:23:39.757Z,1012.41
2016-04-18T00:24:40.698Z,1012.5
2016-04-18T00:25:39.742Z,1012.52
2016-04-18T00:26:39.735Z,1012.52
2016-04-18T00:27:39.712Z,1012.54
2016-04-18T00:28:39.689Z,1012.53
2016-04-18T00:29:39.683Z,1012.59
2016-04-18T00:30:39.673Z,1012.56
2016-04-18T00:31:39.647Z,1012.59
2016-04-18T00:32:39.932Z,1012.54
2016-04-18T00:33:39.609Z,1012.52
2016-04-18T00:34:39.597Z,1012.58
2016-04-18T00:35:39.586Z,1012.54
2016-04-18T00:36:39.558Z,1012.51
2016-04-18T00:37:39.546Z,1012.51
2016-04-18T00:38:39.518Z,1012.52
2016-04-18T00:39:39.506Z,1012.46
2016-04-18T00:40:39.931Z,1012.49
2016-04-18T00:41:39.465Z,1012.56
2016-04-18T00:42:39.453Z,1012.56
2016-04-18T00:43:39.425Z,1012.59
2016-04-18T00:44:39.412Z,1012.57
2016-04-18T00:45:39.384Z,1012.6
2016-04-18T00:46:39.371Z,1012.57
2016-04-18T00:47:39.358Z,1012.58
2016-04-18T00:48:39.329Z,1012.57
2016-04-18T00:49:39.317Z,1012.63
2016-04-18T00:50:39.289Z,1012.61
2016-04-18T00:51:39.275Z,1012.63
2016-04-18T00:52:39.263Z,1012.61
2016-04-18T00:53:39.233Z,1012.6
2016-04-18T00:54:39.221Z,1012.58
2016-04-18T00:55:39.192Z,1012.62
2016-04-18T00:56:39.180Z,1012.66
2016-04-18T00:57:39.166Z,1012.63
2016-04-18T00:58:39.138Z,1012.67
2016-04-18T00:59:39.125Z,1012.63
2016-04-18T01:00:39.113Z,1012.66
2016-04-18T01:01:39.083Z,1012.63
2016-04-18T01:02:39.055Z,1012.63
2016-04-18T01:03:39.042Z,1012.66
2016-04-18T01:04:39.029Z,1012.64
2016-04-18T01:05:39.001Z,1012.58
2016-04-18T01:06:38.988Z,1012.56
2016-04-18T01:07:38.974Z,1012.6
2016-04-18T01:08:38.946Z,1012.61
2016-04-18T01:09:38.933Z,1012.61
2016-04-18T01:10:38.904Z,1012.65
2016-04-18T01:11:38.892Z,1012.62
2016-04-18T01:12:38.879Z,1012.65
2016-04-18T01:13:38.850Z,1012.67
2016-04-18T01:14:38.837Z,1012.68
2016-04-18T01:15:38.824Z,1012.68
2016-04-18T01:16:38.795Z,1012.67
2016-04-18T01:17:38.783Z,1012.67
2016-04-18T01:18:38.753Z,1012.67
2016-04-18T01:19:38.742Z,1012.69
2016-04-18T01:20:38.713Z,1012.69
2016-04-18T01:21:38.699Z,1012.71
2016-04-18T01:22:38.672Z,1012.67
2016-04-18T01:23:38.658Z,1012.69
2016-04-18T01:24:38.629Z,1012.67
2016-04-18T01:25:38.617Z,1012.68
2016-04-18T01:26:38.605Z,1012.77
2016-04-18T01:27:38.574Z,1012.72
2016-04-18T01:28:38.578Z,1012.71
2016-04-18T01:29:38.549Z,1012.74
2016-04-18T01:30:38.521Z,1012.74
2016-04-18T01:31:38.508Z,1012.76
2016-04-18T01:32:38.479Z,1012.73
2016-04-18T01:33:38.466Z,1012.71
2016-04-18T01:34:38.438Z,1012.72
2016-04-18T01:35:38.425Z,1012.75
2016-04-18T01:36:38.412Z,1012.76
2016-04-18T01:37:38.384Z,1012.77
2016-04-18T01:38:38.370Z,1012.75
2016-04-18T01:39:38.342Z,1012.76
2016-04-18T01:40:38.328Z,1012.81
2016-04-18T01:41:38.316Z,1012.86
2016-04-18T01:42:38.287Z,1012.84
2016-04-18T01:43:38.275Z,1012.83
2016-04-18T01:44:38.246Z,1012.83
2016-04-18T01:45:38.234Z,1012.85
2016-04-18T01:46:38.220Z,1012.84
2016-04-18T01:47:38.192Z,1012.83
2016-04-18T01:48:38.178Z,1012.84
2016-04-18T01:49:38.150Z,1012.81
2016-04-18T01:50:38.136Z,1012.84
2016-04-18T01:51:38.108Z,1012.82
2016-04-18T01:52:38.095Z,1012.84
2016-04-18T01:53:38.083Z,1012.82
2016-04-18T01:54:38.054Z,1012.87
2016-04-18T01:55:38.041Z,1012.88
2016-04-18T01:56:38.028Z,1012.89
2016-04-18T01:57:38.000Z,1012.91
2016-04-18T01:58:37.986Z,1012.96
2016-04-18T01:59:37.958Z,1012.93
2016-04-18T02:00:37.960Z,1012.95
2016-04-18T02:01:37.916Z,1012.91
2016-04-18T02:02:37.904Z,1012.92
2016-04-18T02:03:37.890Z,1012.93
2016-04-18T02:04:37.863Z,1013.02
2016-04-18T02:05:37.865Z,1013
2016-04-18T02:06:37.820Z,1012.96
2016-04-18T02:07:37.807Z,1012.98
2016-04-18T02:08:37.796Z,1013.03
2016-04-18T02:09:37.766Z,1013.02
2016-04-18T02:10:37.753Z,1013.02
2016-04-18T02:11:37.725Z,1013.03
2016-04-18T02:12:37.712Z,1013.04
2016-04-18T02:13:37.699Z,1012.95
2016-04-18T02:14:37.670Z,1012.99
2016-04-18T02:15:37.657Z,1012.95
2016-04-18T02:16:37.629Z,1012.96
2016-04-18T02:17:37.616Z,1012.93
2016-04-18T02:18:37.587Z,1012.97
2016-04-18T02:19:37.575Z,1012.99
2016-04-18T02:20:37.562Z,1013
2016-04-18T02:21:37.533Z,1012.98
2016-04-18T02:22:37.520Z,1013.01
2016-04-18T02:23:37.491Z,1012.99
2016-04-18T02:24:37.478Z,1013.04
2016-04-18T02:25:37.465Z,1013.03
2016-04-18T02:26:37.437Z,1013.06
2016-04-18T02:27:37.424Z,1013.03
2016-04-18T02:28:37.396Z,1013.02
2016-04-18T02:29:37.383Z,1013
2016-04-18T02:30:37.354Z,1013.08
2016-04-18T02:31:37.341Z,1013.07
2016-04-18T02:32:37.328Z,1013.03
2016-04-18T02:33:37.299Z,1013.04
2016-04-18T02:34:37.287Z,1013.08
2016-04-18T02:35:37.258Z,1013.05
2016-04-18T02:36:37.245Z,1013.05
2016-04-18T02:37:37.232Z,1013
2016-04-18T02:38:37.203Z,1013.03
2016-04-18T02:39:37.191Z,1013.02
2016-04-18T02:40:37.163Z,1013.02
2016-04-18T02:41:37.149Z,1013.03
2016-04-18T02:42:37.137Z,1013.1
2016-04-18T02:43:37.107Z,1013.06
2016-04-18T02:44:37.094Z,1013.07
2016-04-18T02:45:37.081Z,1013.07
2016-04-18T02:46:37.053Z,1013.13
2016-04-18T02:47:37.040Z,1013.11
2016-04-18T02:48:37.011Z,1013.11
2016-04-18T02:49:36.998Z,1013.09
2016-04-18T02:50:36.986Z,1013.11
2016-04-18T02:51:36.958Z,1013.16
2016-04-18T02:52:36.928Z,1013.12
2016-04-18T02:53:36.916Z,1013.11
2016-04-18T02:54:36.903Z,1013.12
2016-04-18T02:55:36.875Z,1013.1
2016-04-18T02:56:36.861Z,1013.12
2016-04-18T02:57:36.833Z,1013.11
2016-04-18T02:58:36.819Z,1013.08
2016-04-18T02:59:36.792Z,1013.08
2016-04-18T03:00:36.777Z,1013.04
2016-04-18T03:01:36.766Z,1013.06
2016-04-18T03:02:36.737Z,1013.07
2016-04-18T03:03:36.818Z,1013.09
2016-04-18T03:04:36.695Z,1013.08
2016-04-18T03:05:36.682Z,1013.05
2016-04-18T03:06:36.654Z,1013.13
2016-04-18T03:07:36.641Z,1013.11
2016-04-18T03:08:36.629Z,1013.08
2016-04-18T03:09:36.600Z,1013.12
2016-04-18T03:10:36.587Z,1013.09
2016-04-18T03:11:36.808Z,1013.12
2016-04-18T03:12:36.545Z,1013.14
2016-04-18T03:13:36.532Z,1013.12
2016-04-18T03:14:36.504Z,1013.15
2016-04-18T03:15:36.491Z,1013.18
2016-04-18T03:16:36.462Z,1013.13
2016-04-18T03:17:36.449Z,1013.17
2016-04-18T03:18:36.437Z,1013.17
2016-04-18T03:19:36.908Z,1013.19
2016-04-18T03:20:36.395Z,1013.2
2016-04-18T03:21:36.366Z,1013.17
2016-04-18T03:22:36.353Z,1013.19
2016-04-18T03:23:36.340Z,1013.19
2016-04-18T03:24:36.312Z,1013.14
2016-04-18T03:25:36.299Z,1013.2
2016-04-18T03:26:36.270Z,1013.18
2016-04-18T03:27:36.897Z,1013.15
2016-04-18T03:28:36.228Z,1013.19
2016-04-18T03:29:36.215Z,1013.19
2016-04-18T03:30:36.187Z,1013.18
2016-04-18T03:31:36.174Z,1013.16
2016-04-18T03:32:36.161Z,1013.15
2016-04-18T03:33:36.149Z,1013.15
2016-04-18T03:34:36.119Z,1013.15
2016-04-18T03:35:36.154Z,1013.15
2016-04-18T03:36:36.078Z,1013.12
2016-04-18T03:37:36.065Z,1013.16
2016-04-18T03:38:36.037Z,1013.13
2016-04-18T03:39:36.008Z,1013.15
2016-04-18T03:40:35.996Z,1013.12
2016-04-18T03:41:35.982Z,1013.16
2016-04-18T03:42:35.954Z,1013.14
2016-04-18T03:43:36.144Z,1013.15
2016-04-18T03:44:35.912Z,1013.24
2016-04-18T03:45:35.899Z,1013.17
2016-04-18T03:46:35.870Z,1013.2
2016-04-18T03:47:35.859Z,1013.16
2016-04-18T03:48:35.845Z,1013.19
2016-04-18T03:49:35.832Z,1013.21
2016-04-18T03:50:35.803Z,1013.19
2016-04-18T03:51:36.884Z,1013.21
2016-04-18T03:52:35.762Z,1013.19
2016-04-18T03:53:35.749Z,1013.18
2016-04-18T03:54:35.752Z,1013.19
2016-04-18T03:55:35.722Z,1013.21
2016-04-18T03:56:35.678Z,1013.18
2016-04-18T03:57:35.666Z,1013.12
2016-04-18T03:58:35.653Z,1013.17
2016-04-18T03:59:35.625Z,1013.19
2016-04-18T04:00:35.611Z,1013.24
2016-04-18T04:01:35.583Z,1013.2
2016-04-18T04:02:35.570Z,1013.21
2016-04-18T04:03:35.542Z,1013.22
2016-04-18T04:04:35.529Z,1013.25
2016-04-18T04:05:35.516Z,1013.2
2016-04-18T04:06:35.487Z,1013.2
2016-04-18T04:07:35.474Z,1013.2
2016-04-18T04:08:35.446Z,1013.23
2016-04-18T04:09:35.479Z,1013.2
2016-04-18T04:10:35.404Z,1013.28
2016-04-18T04:11:35.391Z,1013.29
2016-04-18T04:12:35.379Z,1013.28
2016-04-18T04:13:35.349Z,1013.3
2016-04-18T04:14:35.337Z,1013.31
2016-04-18T04:15:35.309Z,1013.34
2016-04-18T04:16:35.295Z,1013.29
2016-04-18T04:17:35.267Z,1013.34
2016-04-18T04:18:35.254Z,1013.31
2016-04-18T04:19:35.225Z,1013.3
2016-04-18T04:20:35.212Z,1013.27
2016-04-18T04:21:35.199Z,1013.22
2016-04-18T04:22:35.171Z,1013.31
2016-04-18T04:23:35.158Z,1013.29
2016-04-18T04:24:35.129Z,1013.26
2016-04-18T04:25:35.117Z,1013.27
2016-04-18T04:26:35.103Z,1013.28
2016-04-18T04:27:35.075Z,1013.33
2016-04-18T04:28:35.061Z,1013.34
2016-04-18T04:29:35.034Z,1013.3
2016-04-18T04:30:35.020Z,1013.33
2016-04-18T04:31:34.992Z,1013.35
2016-04-18T04:32:34.979Z,1013.28
2016-04-18T04:33:34.950Z,1013.32
2016-04-18T04:34:34.938Z,1013.31
2016-04-18T04:35:34.908Z,1013.33
2016-04-18T04:36:34.896Z,1013.36
2016-04-18T04:37:34.882Z,1013.37
2016-04-18T04:38:34.854Z,1013.38
2016-04-18T04:39:34.841Z,1013.35
2016-04-18T04:40:34.829Z,1013.34
2016-04-18T04:41:34.800Z,1013.38
2016-04-18T04:42:34.787Z,1013.37
2016-04-18T04:43:34.759Z,1013.39
2016-04-18T04:44:34.745Z,1013.39
2016-04-18T04:45:34.717Z,1013.36
2016-04-18T04:46:34.703Z,1013.36
2016-04-18T04:47:34.674Z,1013.35
2016-04-18T04:48:34.677Z,1013.4
2016-04-18T04:49:34.649Z,1013.4
2016-04-18T04:50:34.620Z,1013.44
2016-04-18T04:51:34.608Z,1013.44
2016-04-18T04:52:34.578Z,1013.43
2016-04-18T04:53:34.566Z,1013.48
2016-04-18T04:54:34.569Z,1013.46
2016-04-18T04:55:34.524Z,1013.48
2016-04-18T04:56:34.511Z,1013.51
2016-04-18T04:57:34.483Z,1013.46
2016-04-18T04:58:34.469Z,1013.48
2016-04-18T04:59:34.441Z,1013.48
2016-04-18T05:00:34.429Z,1013.48
2016-04-18T05:01:34.415Z,1013.52
2016-04-18T05:02:34.387Z,1013.49
2016-04-18T05:03:34.357Z,1013.49
2016-04-18T05:04:34.345Z,1013.54
2016-04-18T05:05:34.332Z,1013.54
2016-04-18T05:06:34.320Z,1013.57
2016-04-18T05:07:34.291Z,1013.58
2016-04-18T05:08:34.278Z,1013.61
2016-04-18T05:09:34.296Z,1013.57
2016-04-18T05:10:34.236Z,1013.58
2016-04-18T05:11:34.208Z,1013.6
2016-04-18T05:12:34.195Z,1013.61
2016-04-18T05:13:34.166Z,1013.63
2016-04-18T05:14:34.153Z,1013.62
2016-04-18T05:15:34.140Z,1013.63
2016-04-18T05:16:34.112Z,1013.61
2016-04-18T05:17:34.099Z,1013.65
2016-04-18T05:18:34.086Z,1013.67
2016-04-18T05:19:34.057Z,1013.63
2016-04-18T05:20:34.028Z,1013.65
2016-04-18T05:21:34.016Z,1013.64
2016-04-18T05:22:34.003Z,1013.65
2016-04-18T05:23:33.974Z,1013.65
2016-04-18T05:24:33.961Z,1013.67
2016-04-18T05:25:33.933Z,1013.7
2016-04-18T05:26:33.919Z,1013.69
2016-04-18T05:27:33.891Z,1013.69
2016-04-18T05:28:33.878Z,1013.7
2016-04-18T05:29:33.849Z,1013.75
2016-04-18T05:30:33.843Z,1013.73
2016-04-18T05:31:33.814Z,1013.73
2016-04-18T05:32:33.802Z,1013.73
2016-04-18T05:33:33.772Z,1013.71
2016-04-18T05:34:33.760Z,1013.73
2016-04-18T05:35:33.746Z,1013.74
2016-04-18T05:36:33.718Z,1013.75
2016-04-18T05:37:33.705Z,1013.78
2016-04-18T05:38:33.677Z,1013.77
2016-04-18T05:39:33.664Z,1013.77
2016-04-18T05:40:33.651Z,1013.76
2016-04-18T05:41:33.623Z,1013.75
2016-04-18T05:42:33.609Z,1013.74
2016-04-18T05:43:33.581Z,1013.76
2016-04-18T05:44:33.567Z,1013.75
2016-04-18T05:45:33.554Z,1013.72
2016-04-18T05:46:33.526Z,1013.74
2016-04-18T05:47:33.497Z,1013.75
2016-04-18T05:48:33.501Z,1013.81
2016-04-18T05:49:33.472Z,1013.76
2016-04-18T05:50:33.443Z,1013.82
2016-04-18T05:51:33.430Z,1013.8
2016-04-18T05:52:33.402Z,1013.85
2016-04-18T05:53:33.389Z,1013.89
2016-04-18T05:54:33.392Z,1013.89
2016-04-18T05:55:33.348Z,1013.9
2016-04-18T05:56:33.335Z,1013.91
2016-04-18T05:57:33.322Z,1013.93
2016-04-18T05:58:33.294Z,1013.91
2016-04-18T05:59:33.280Z,1013.91
2016-04-18T06:00:33.252Z,1013.87
2016-04-18T06:01:33.222Z,1013.89
2016-04-18T06:02:33.210Z,1013.89
2016-04-18T06:03:33.197Z,1013.91
2016-04-18T06:04:33.169Z,1013.93
2016-04-18T06:05:33.156Z,1013.94
2016-04-18T06:06:33.127Z,1013.92
2016-04-18T06:07:33.114Z,1013.94
2016-04-18T06:08:33.085Z,1013.96
2016-04-18T06:09:33.073Z,1013.98
2016-04-18T06:10:33.059Z,1014
2016-04-18T06:11:33.031Z,1013.99
2016-04-18T06:12:33.018Z,1014.03
2016-04-18T06:13:33.005Z,1014.03
2016-04-18T06:14:33.024Z,1014.03
2016-04-18T06:15:32.964Z,1014.09
2016-04-18T06:16:32.935Z,1014.06
2016-04-18T06:17:32.906Z,1014.11
2016-04-18T06:18:32.894Z,1014.05
2016-04-18T06:19:32.881Z,1014.08
2016-04-18T06:20:32.853Z,1014.1
2016-04-18T06:21:32.839Z,1014.08
2016-04-18T06:22:33.061Z,1014.11
2016-04-18T06:23:32.797Z,1014.08
2016-04-18T06:24:32.784Z,1014.09
2016-04-18T06:25:32.756Z,1014.1
2016-04-18T06:26:32.744Z,1014.12
2016-04-18T06:27:32.715Z,1014.14
2016-04-18T06:28:32.702Z,1014.12
2016-04-18T06:29:32.689Z,1014.11
2016-04-18T06:30:33.005Z,1014.16
2016-04-18T06:31:32.632Z,1014.15
2016-04-18T06:32:32.619Z,1014.13
2016-04-18T06:33:32.637Z,1014.13
2016-04-18T06:34:32.578Z,1014.15
2016-04-18T06:35:32.564Z,1014.17
2016-04-18T06:36:32.536Z,1014.17
2016-04-18T06:37:32.524Z,1014.14
2016-04-18T06:38:33.057Z,1014.21
2016-04-18T06:39:32.481Z,1014.21
2016-04-18T06:40:32.453Z,1014.19
2016-04-18T06:41:32.440Z,1014.25
2016-04-18T06:42:32.427Z,1014.25
2016-04-18T06:43:32.399Z,1014.26
2016-04-18T06:44:32.401Z,1014.24
2016-04-18T06:45:32.373Z,1014.25
2016-04-18T06:46:33.047Z,1014.21
2016-04-18T06:47:32.331Z,1014.28
2016-04-18T06:48:32.303Z,1014.22
2016-04-18T06:49:32.290Z,1014.28
2016-04-18T06:50:32.262Z,1014.28
2016-04-18T06:51:32.248Z,1014.26
2016-04-18T06:52:32.220Z,1014.26
2016-04-18T06:53:32.206Z,1014.24
2016-04-18T06:54:32.350Z,1014.25
2016-04-18T06:55:32.165Z,1014.25
2016-04-18T06:56:32.153Z,1014.25
2016-04-18T06:57:32.123Z,1014.3
2016-04-18T06:58:32.111Z,1014.29
2016-04-18T06:59:32.097Z,1014.29
2016-04-18T07:00:32.069Z,1014.33
2016-04-18T07:01:32.055Z,1014.26
2016-04-18T07:02:32.340Z,1014.26
2016-04-18T07:03:32.014Z,1014.24
2016-04-18T07:04:32.001Z,1014.28
2016-04-18T07:05:31.973Z,1014.27
2016-04-18T07:06:31.944Z,1014.29
2016-04-18T07:07:31.932Z,1014.25
2016-04-18T07:08:31.919Z,1014.26
2016-04-18T07:09:31.891Z,1014.25
2016-04-18T07:10:31.877Z,1014.27
2016-04-18T07:11:31.849Z,1014.3
2016-04-18T07:12:31.835Z,1014.29
2016-04-18T07:13:31.823Z,1014.31
2016-04-18T07:14:31.793Z,1014.3
2016-04-18T07:15:31.782Z,1014.31
2016-04-18T07:16:31.753Z,1014.31
2016-04-18T07:17:31.740Z,1014.3
2016-04-18T07:18:31.711Z,1014.26
2016-04-18T07:19:31.698Z,1014.31
2016-04-18T07:20:31.684Z,1014.27
2016-04-18T07:21:31.664Z,1014.29
2016-04-18T07:22:31.635Z,1014.25
2016-04-18T07:23:31.622Z,1014.34
2016-04-18T07:24:31.609Z,1014.24
2016-04-18T07:25:31.581Z,1014.25
2016-04-18T07:26:31.568Z,1014.25
2016-04-18T07:27:31.539Z,1014.29
2016-04-18T07:28:31.527Z,1014.29
2016-04-18T07:29:31.513Z,1014.23
2016-04-18T07:30:31.485Z,1014.32
2016-04-18T07:31:31.472Z,1014.3
2016-04-18T07:32:31.459Z,1014.35
2016-04-18T07:33:31.430Z,1014.33
2016-04-18T07:34:31.449Z,1014.26
2016-04-18T07:35:31.404Z,1014.27
2016-04-18T07:36:31.376Z,1014.27
2016-04-18T07:37:31.362Z,1014.32
2016-04-18T07:38:31.365Z,1014.33
2016-04-18T07:39:31.337Z,1014.32
2016-04-18T07:40:31.308Z,1014.31
2016-04-18T07:41:31.295Z,1014.31
2016-04-18T07:42:31.282Z,1014.31
2016-04-18T07:43:31.269Z,1014.35
2016-04-18T07:44:31.241Z,1014.33
2016-04-18T07:45:31.228Z,1014.43
2016-04-18T07:46:31.214Z,1014.43
2016-04-18T07:47:31.186Z,1014.37
2016-04-18T07:48:31.189Z,1014.37
2016-04-18T07:49:31.161Z,1014.38
2016-04-18T07:50:31.148Z,1014.37
2016-04-18T07:51:31.120Z,1014.37
2016-04-18T07:52:31.106Z,1014.36
2016-04-18T07:53:31.109Z,1014.32
2016-04-18T07:54:31.080Z,1014.33
2016-04-18T07:55:31.052Z,1014.35
2016-04-18T07:56:31.038Z,1014.35
2016-04-18T07:57:31.026Z,1014.32
2016-04-18T07:58:30.997Z,1014.4
2016-04-18T07:59:30.985Z,1014.37
2016-04-18T08:00:30.971Z,1014.33
2016-04-18T08:01:30.943Z,1014.43
2016-04-18T08:02:30.929Z,1014.34
2016-04-18T08:03:30.918Z,1014.41
2016-04-18T08:04:30.904Z,1014.32
2016-04-18T08:05:30.891Z,1014.39
2016-04-18T08:06:30.862Z,1014.35
2016-04-18T08:07:30.849Z,1014.41
2016-04-18T08:08:30.837Z,1014.37
2016-04-18T08:09:30.824Z,1014.42
2016-04-18T08:10:30.795Z,1014.32
2016-04-18T08:11:30.782Z,1014.31
2016-04-18T08:12:30.769Z,1014.32
2016-04-18T08:13:30.756Z,1014.34
2016-04-18T08:14:30.743Z,1014.31
2016-04-18T08:15:30.714Z,1014.36
2016-04-18T08:16:30.702Z,1014.28
2016-04-18T08:17:30.689Z,1014.3
2016-04-18T08:18:30.676Z,1014.3
2016-04-18T08:19:30.647Z,1014.35
2016-04-18T08:20:30.635Z,1014.28
2016-04-18T08:21:30.622Z,1014.28
2016-04-18T08:22:30.609Z,1014.3
2016-04-18T08:23:30.597Z,1014.3
2016-04-18T08:24:30.568Z,1014.31
2016-04-18T08:25:30.555Z,1014.25
2016-04-18T08:26:30.541Z,1014.21
2016-04-18T08:27:30.528Z,1014.23
2016-04-18T08:28:30.499Z,1014.27
2016-04-18T08:29:30.487Z,1014.29
2016-04-18T08:30:30.474Z,1014.28
2016-04-18T08:31:30.461Z,1014.34
2016-04-18T08:32:30.449Z,1014.34
2016-04-18T08:33:30.420Z,1014.35
2016-04-18T08:34:30.407Z,1014.35
2016-04-18T08:35:30.393Z,1014.36
2016-04-18T08:36:30.382Z,1014.33
2016-04-18T08:37:30.368Z,1014.36
2016-04-18T08:38:30.340Z,1014.45
2016-04-18T08:39:30.327Z,1014.4
2016-04-18T08:40:30.313Z,1014.39
2016-04-18T08:41:30.301Z,1014.38
2016-04-18T08:42:30.272Z,1014.44
2016-04-18T08:43:30.259Z,1014.41
2016-04-18T08:44:30.246Z,1014.41
2016-04-18T08:45:30.234Z,1014.38
2016-04-18T08:46:30.204Z,1014.37
2016-04-18T08:47:30.192Z,1014.43
2016-04-18T08:48:30.178Z,1014.43
2016-04-18T08:49:30.166Z,1014.38
2016-04-18T08:50:30.153Z,1014.42
2016-04-18T08:51:30.125Z,1014.39
2016-04-18T08:52:30.112Z,1014.4
2016-04-18T08:53:30.098Z,1014.39
2016-04-18T08:54:30.086Z,1014.34
2016-04-18T08:55:30.073Z,1014.3
2016-04-18T08:56:30.060Z,1014.34
2016-04-18T08:57:30.030Z,1014.36
2016-04-18T08:58:30.018Z,1014.37
2016-04-18T08:59:29.989Z,1014.41
2016-04-18T09:00:29.976Z,1014.39
2016-04-18T09:01:29.964Z,1014.33
2016-04-18T09:02:29.951Z,1014.42
2016-04-18T09:03:29.954Z,1014.4
2016-04-18T09:04:29.909Z,1014.41
2016-04-18T09:05:29.897Z,1014.42
2016-04-18T09:06:29.883Z,1014.42
2016-04-18T09:07:29.871Z,1014.43
2016-04-18T09:08:29.843Z,1014.43
2016-04-18T09:09:29.830Z,1014.4
2016-04-18T09:10:29.987Z,1014.44
2016-04-18T09:11:29.803Z,1014.45
2016-04-18T09:12:29.791Z,1014.43
2016-04-18T09:13:29.761Z,1014.41
2016-04-18T09:14:29.749Z,1014.51
2016-04-18T09:15:29.736Z,1014.43
2016-04-18T09:16:29.723Z,1014.41
2016-04-18T09:17:29.694Z,1014.35
2016-04-18T09:18:29.681Z,1014.38
2016-04-18T09:19:29.668Z,1014.37
2016-04-18T09:20:29.656Z,1014.38
2016-04-18T09:21:29.652Z,1014.41
2016-04-18T09:22:29.681Z,1014.46
2016-04-18T09:23:29.710Z,1014.4
2016-04-18T09:24:29.740Z,1014.49
2016-04-18T09:25:29.767Z,1014.39
2016-04-18T09:26:29.765Z,1014.42
2016-04-18T09:27:29.767Z,1014.42
2016-04-18T09:28:29.771Z,1014.38
2016-04-18T09:29:29.756Z,1014.37
2016-04-18T09:30:29.760Z,1014.41
2016-04-18T09:31:29.756Z,1014.38
2016-04-18T09:32:29.733Z,1014.37
2016-04-18T09:33:29.724Z,1014.37
2016-04-18T09:34:29.717Z,1014.39
2016-04-18T09:35:29.710Z,1014.37
2016-04-18T09:36:29.685Z,1014.39
2016-04-18T09:37:29.673Z,1014.36
2016-04-18T09:38:29.663Z,1014.36
2016-04-18T09:39:29.635Z,1014.3
2016-04-18T09:40:29.640Z,1014.29
2016-04-18T09:41:29.613Z,1014.25
2016-04-18T09:42:29.586Z,1014.33
2016-04-18T09:43:29.573Z,1014.29
2016-04-18T09:44:29.560Z,1014.35
2016-04-18T09:45:29.549Z,1014.32
2016-04-18T09:46:29.521Z,1014.33
2016-04-18T09:47:29.508Z,1014.28
2016-04-18T09:48:29.495Z,1014.36
2016-04-18T09:49:29.575Z,1014.31
2016-04-18T09:50:29.452Z,1014.26
2016-04-18T09:51:29.440Z,1014.31
2016-04-18T09:52:29.427Z,1014.3
2016-04-18T09:53:29.398Z,1014.33
2016-04-18T09:54:29.385Z,1014.34
2016-04-18T09:55:29.373Z,1014.23
2016-04-18T09:56:29.344Z,1014.24
2016-04-18T09:57:29.582Z,1014.28
2016-04-18T09:58:29.334Z,1014.2
2016-04-18T09:59:29.290Z,1014.19
2016-04-18T10:00:29.277Z,1014.22
2016-04-18T10:01:29.264Z,1014.2
2016-04-18T10:02:29.235Z,1014.19
2016-04-18T10:03:29.222Z,1014.2
2016-04-18T10:04:29.209Z,1014.24
2016-04-18T10:05:29.587Z,1014.22
2016-04-18T10:06:29.168Z,1014.29
2016-04-18T10:07:29.156Z,1014.18
2016-04-18T10:08:29.142Z,1014.16
2016-04-18T10:09:29.114Z,1014.2
2016-04-18T10:10:29.117Z,1014.19
2016-04-18T10:11:29.088Z,1014.14
2016-04-18T10:12:29.075Z,1014.14
2016-04-18T10:13:29.597Z,1014.23
2016-04-18T10:14:29.020Z,1014.11
2016-04-18T10:15:29.008Z,1014.11
2016-04-18T10:16:28.995Z,1014.12
2016-04-18T10:17:28.983Z,1014.07
2016-04-18T10:18:28.953Z,1014.12
2016-04-18T10:19:28.940Z,1014.08
2016-04-18T10:20:28.943Z,1014.06
2016-04-18T10:21:28.914Z,1014.13
2016-04-18T10:22:28.902Z,1014.05
2016-04-18T10:23:28.873Z,1014.04
2016-04-18T10:24:32.079Z,1014.04
2016-04-18T10:25:28.847Z,1014.08
2016-04-18T10:26:28.818Z,1014.14
2016-04-18T10:27:28.821Z,1014.12
2016-04-18T10:28:28.793Z,1014.08
2016-04-18T10:29:28.874Z,1014.05
2016-04-18T10:30:28.767Z,1014.1
2016-04-18T10:31:28.738Z,1014.17
2016-04-18T10:32:28.725Z,1014.17
2016-04-18T10:33:28.712Z,1014.09
2016-04-18T10:34:28.699Z,1014.12
2016-04-18T10:35:28.671Z,1014.04
2016-04-18T10:36:28.659Z,1014.04
2016-04-18T10:37:28.895Z,1014.12
2016-04-18T10:38:28.632Z,1014.03
2016-04-18T10:39:28.603Z,1014.01
2016-04-18T10:40:28.591Z,1014.01
2016-04-18T10:41:28.577Z,1013.98
2016-04-18T10:42:28.564Z,1014.04
2016-04-18T10:43:28.536Z,1014.01
2016-04-18T10:44:28.539Z,1013.97
2016-04-18T10:45:28.916Z,1013.98
2016-04-18T10:46:28.498Z,1014.03
2016-04-18T10:47:28.484Z,1014.02
2016-04-18T10:48:28.456Z,1013.99
2016-04-18T10:49:28.444Z,1014.07
2016-04-18T10:50:28.431Z,1014.07
2016-04-18T10:51:28.416Z,1014
2016-04-18T10:52:28.404Z,1013.98
2016-04-18T10:53:28.391Z,1014.01
2016-04-18T10:54:28.363Z,1013.91
2016-04-18T10:55:28.349Z,1013.96
2016-04-18T10:56:29.477Z,1014.01
2016-04-18T10:57:28.308Z,1014.09
2016-04-18T10:58:28.310Z,1014.04
2016-04-18T10:59:28.283Z,1013.98
2016-04-18T11:00:28.269Z,1014
2016-04-18T11:01:28.257Z,1014.08
2016-04-18T11:02:28.228Z,1014.05
2016-04-18T11:03:28.231Z,1014.05
2016-04-18T11:04:28.201Z,1014.07
2016-04-18T11:05:28.189Z,1014.04
2016-04-18T11:06:28.176Z,1013.99
2016-04-18T11:07:28.147Z,1013.98
2016-04-18T11:08:28.134Z,1014
2016-04-18T11:09:28.137Z,1014.02
2016-04-18T11:10:28.109Z,1013.99
2016-04-18T11:11:28.095Z,1014.04
2016-04-18T11:12:28.067Z,1014.09
2016-04-18T11:13:28.054Z,1014.09
2016-04-18T11:14:28.041Z,1014.12
2016-04-18T11:15:28.029Z,1014.14
2016-04-18T11:16:28.016Z,1014.1
2016-04-18T11:17:28.003Z,1014.12
2016-04-18T11:18:27.974Z,1014.11
2016-04-18T11:19:27.961Z,1014.16
2016-04-18T11:20:27.948Z,1014.14
2016-04-18T11:21:27.935Z,1014.12
2016-04-18T11:22:27.908Z,1014.11
2016-04-18T11:23:27.894Z,1014.13
2016-04-18T11:24:27.881Z,1014.14
2016-04-18T11:25:27.868Z,1014.16
2016-04-18T11:26:27.855Z,1014.18
2016-04-18T11:27:27.826Z,1014.16
2016-04-18T11:28:27.814Z,1014.16
2016-04-18T11:29:27.801Z,1014.15
2016-04-18T11:30:27.771Z,1014.11
2016-04-18T11:31:27.759Z,1014.12
2016-04-18T11:32:27.746Z,1014.15
2016-04-18T11:33:27.733Z,1014.13
2016-04-18T11:34:27.721Z,1014.13
2016-04-18T11:35:27.707Z,1014.11
2016-04-18T11:36:27.678Z,1014.08
2016-04-18T11:37:27.665Z,1014.12
2016-04-18T11:38:27.653Z,1014.19
2016-04-18T11:39:27.640Z,1014.25
2016-04-18T11:40:27.627Z,1014.3
2016-04-18T11:41:27.598Z,1014.2
2016-04-18T11:42:27.586Z,1014.18
2016-04-18T11:43:27.572Z,1014.19
2016-04-18T11:44:27.544Z,1014.16
2016-04-18T11:47:27.505Z,1014.08
2016-04-18T11:48:27.492Z,1014.05
2016-04-18T11:49:27.464Z,1014.08
2016-04-18T11:50:27.450Z,1014.08
2016-04-18T11:51:27.438Z,1014.03
2016-04-18T11:52:27.425Z,1014.03
2016-04-18T11:53:27.397Z,1014.04
2016-04-18T11:54:27.384Z,1014.03
2016-04-18T11:55:27.355Z,1013.96
2016-04-18T11:56:27.342Z,1014.04
2016-04-18T11:57:27.329Z,1014.06
2016-04-18T11:58:27.316Z,1014.14
2016-04-18T11:59:27.318Z,1014.08
2016-04-18T12:00:27.274Z,1014.12
2016-04-18T12:01:27.262Z,1014.14
2016-04-18T12:02:27.249Z,1014.12
2016-04-18T12:03:27.235Z,1014.13
2016-04-18T12:04:27.208Z,1014.06
2016-04-18T12:05:27.193Z,1014.15
2016-04-18T12:06:27.181Z,1014.16
2016-04-18T12:07:27.168Z,1014.16
2016-04-18T12:08:27.156Z,1014.16
2016-04-18T12:09:27.127Z,1014.13
2016-04-18T12:10:27.114Z,1014.18